메인 페이지
METAR-TAF:

METAR-TAF

공항 :

Agri-Science Center

Chillicothe, 미주리, 미국

위도: 39-49N, 경도: 093-35W, 고도: 234m

현재 날씨관측

예보는 35분 전, 12:52시(UTC)에 발표되었습니다.
5kt
온도 14°C
습도 100%
기압 1009 hPa

METAR: KCDJ 071252Z AUTO 18005KT 14/14 A2979 RMK AO1 SLP083 T01440144

시각: 08:27 (13:27 UTC)


TAF: 누락

4,000개 이상의 공항 관측 자료 및 예보 (METAR 및 TAF 보고).

지도상에서 검색 가능한 기상관측소가 노란 점과 빨간 점으로 표시되어 있습니다.

기상관측소 명을 보려면 표시 위로 마우스를 이동하세요.

날씨 관측과 예보를 보려면 클릭하세요.

지도 변경 : 확대하려면 엑스 표시가 있는 녹색 버튼, 축소하려면 빼기 표시가 있는 녹색 버튼, 다음 페이지의 지도를 보려면 녹색 화살표를 클릭하세요.


METAR-TAF: